sensor_id;sensor_type;location;lat;lon;timestamp;temperature;humidity
44695;DHT22;32845;59.422;17.930;2024-01-25T00:01:29;1.60;99.90
44695;DHT22;32845;59.422;17.930;2024-01-25T00:05:59;1.60;99.90
44695;DHT22;32845;59.422;17.930;2024-01-25T00:10:30;1.60;99.90
44695;DHT22;32845;59.422;17.930;2024-01-25T00:15:01;1.60;99.90
44695;DHT22;32845;59.422;17.930;2024-01-25T00:19:33;1.60;99.90
44695;DHT22;32845;59.422;17.930;2024-01-25T00:24:03;1.60;99.90
44695;DHT22;32845;59.422;17.930;2024-01-25T00:28:34;1.60;99.90
44695;DHT22;32845;59.422;17.930;2024-01-25T00:33:05;1.60;99.90
44695;DHT22;32845;59.422;17.930;2024-01-25T00:37:36;1.60;99.90
44695;DHT22;32845;59.422;17.930;2024-01-25T00:42:07;1.70;99.90
44695;DHT22;32845;59.422;17.930;2024-01-25T00:46:45;1.60;99.90
44695;DHT22;32845;59.422;17.930;2024-01-25T00:51:21;1.70;99.90
44695;DHT22;32845;59.422;17.930;2024-01-25T00:55:52;1.70;99.90
44695;DHT22;32845;59.422;17.930;2024-01-25T01:00:23;1.70;99.90
44695;DHT22;32845;59.422;17.930;2024-01-25T01:04:54;1.70;99.90
44695;DHT22;32845;59.422;17.930;2024-01-25T01:09:25;1.70;99.90
44695;DHT22;32845;59.422;17.930;2024-01-25T01:13:56;1.70;99.90
44695;DHT22;32845;59.422;17.930;2024-01-25T01:18:26;1.70;99.90
44695;DHT22;32845;59.422;17.930;2024-01-25T01:22:57;1.70;99.90
44695;DHT22;32845;59.422;17.930;2024-01-25T01:27:27;1.70;99.90
44695;DHT22;32845;59.422;17.930;2024-01-25T01:31:58;1.70;99.90
44695;DHT22;32845;59.422;17.930;2024-01-25T01:36:28;1.70;99.90
44695;DHT22;32845;59.422;17.930;2024-01-25T01:40:59;1.80;99.90
44695;DHT22;32845;59.422;17.930;2024-01-25T01:45:30;1.80;99.90
44695;DHT22;32845;59.422;17.930;2024-01-25T01:50:01;1.80;99.90
44695;DHT22;32845;59.422;17.930;2024-01-25T01:54:32;1.80;99.90
44695;DHT22;32845;59.422;17.930;2024-01-25T01:59:04;1.80;99.90
44695;DHT22;32845;59.422;17.930;2024-01-25T02:03:35;1.70;99.90
44695;DHT22;32845;59.422;17.930;2024-01-25T02:08:06;1.80;99.90
44695;DHT22;32845;59.422;17.930;2024-01-25T02:12:37;1.70;99.90
44695;DHT22;32845;59.422;17.930;2024-01-25T02:17:08;1.70;99.90
44695;DHT22;32845;59.422;17.930;2024-01-25T02:21:39;1.70;99.90
44695;DHT22;32845;59.422;17.930;2024-01-25T02:26:14;1.70;99.90
44695;DHT22;32845;59.422;17.930;2024-01-25T02:30:45;1.70;99.90
44695;DHT22;32845;59.422;17.930;2024-01-25T02:35:15;1.70;99.90
44695;DHT22;32845;59.422;17.930;2024-01-25T02:39:46;1.70;99.90
44695;DHT22;32845;59.422;17.930;2024-01-25T02:44:17;1.70;99.90
44695;DHT22;32845;59.422;17.930;2024-01-25T02:48:48;1.70;99.90
44695;DHT22;32845;59.422;17.930;2024-01-25T02:53:19;1.70;99.90
44695;DHT22;32845;59.422;17.930;2024-01-25T02:57:49;1.60;99.90
44695;DHT22;32845;59.422;17.930;2024-01-25T03:02:20;1.70;99.90
44695;DHT22;32845;59.422;17.930;2024-01-25T03:06:51;1.60;99.90
44695;DHT22;32845;59.422;17.930;2024-01-25T03:11:21;1.60;99.90
44695;DHT22;32845;59.422;17.930;2024-01-25T03:15:57;1.60;99.90
44695;DHT22;32845;59.422;17.930;2024-01-25T03:20:28;1.60;99.90
44695;DHT22;32845;59.422;17.930;2024-01-25T03:25:04;1.60;99.90
44695;DHT22;32845;59.422;17.930;2024-01-25T03:29:34;1.50;99.90
44695;DHT22;32845;59.422;17.930;2024-01-25T03:34:05;1.50;99.90
44695;DHT22;32845;59.422;17.930;2024-01-25T03:38:35;1.60;99.90
44695;DHT22;32845;59.422;17.930;2024-01-25T03:43:06;1.50;99.90
44695;DHT22;32845;59.422;17.930;2024-01-25T03:47:37;1.50;99.90
44695;DHT22;32845;59.422;17.930;2024-01-25T03:52:07;1.50;99.90
44695;DHT22;32845;59.422;17.930;2024-01-25T03:56:38;1.40;99.90
44695;DHT22;32845;59.422;17.930;2024-01-25T04:01:08;1.40;99.90
44695;DHT22;32845;59.422;17.930;2024-01-25T04:05:39;1.30;99.90
44695;DHT22;32845;59.422;17.930;2024-01-25T04:10:10;1.30;99.90
44695;DHT22;32845;59.422;17.930;2024-01-25T04:14:41;1.30;99.90
44695;DHT22;32845;59.422;17.930;2024-01-25T04:19:11;1.30;99.90
44695;DHT22;32845;59.422;17.930;2024-01-25T04:23:43;1.30;99.90
44695;DHT22;32845;59.422;17.930;2024-01-25T04:28:13;1.20;99.90
44695;DHT22;32845;59.422;17.930;2024-01-25T04:32:45;1.20;99.90
44695;DHT22;32845;59.422;17.930;2024-01-25T04:37:16;1.20;99.90
44695;DHT22;32845;59.422;17.930;2024-01-25T04:41:46;1.30;99.90
44695;DHT22;32845;59.422;17.930;2024-01-25T04:46:22;1.20;99.90
44695;DHT22;32845;59.422;17.930;2024-01-25T04:50:52;1.20;99.90
44695;DHT22;32845;59.422;17.930;2024-01-25T04:55:23;1.30;99.90
44695;DHT22;32845;59.422;17.930;2024-01-25T04:59:54;1.20;99.90
44695;DHT22;32845;59.422;17.930;2024-01-25T05:04:25;1.20;99.90
44695;DHT22;32845;59.422;17.930;2024-01-25T05:08:55;1.20;99.90
44695;DHT22;32845;59.422;17.930;2024-01-25T05:13:26;1.20;99.90
44695;DHT22;32845;59.422;17.930;2024-01-25T05:17:57;1.10;99.90
44695;DHT22;32845;59.422;17.930;2024-01-25T05:22:27;1.20;99.90
44695;DHT22;32845;59.422;17.930;2024-01-25T05:26:58;1.20;99.90
44695;DHT22;32845;59.422;17.930;2024-01-25T05:31:28;1.20;99.90
44695;DHT22;32845;59.422;17.930;2024-01-25T05:36:04;1.20;99.90
44695;DHT22;32845;59.422;17.930;2024-01-25T05:40:34;1.20;99.90
44695;DHT22;32845;59.422;17.930;2024-01-25T05:45:05;1.20;99.90
44695;DHT22;32845;59.422;17.930;2024-01-25T05:49:36;1.20;99.90
44695;DHT22;32845;59.422;17.930;2024-01-25T05:54:07;1.20;99.90
44695;DHT22;32845;59.422;17.930;2024-01-25T05:58:37;1.10;99.90
44695;DHT22;32845;59.422;17.930;2024-01-25T06:03:08;1.10;99.90
44695;DHT22;32845;59.422;17.930;2024-01-25T06:07:38;1.10;99.90
44695;DHT22;32845;59.422;17.930;2024-01-25T06:12:09;1.00;99.90
44695;DHT22;32845;59.422;17.930;2024-01-25T06:16:39;1.00;99.90
44695;DHT22;32845;59.422;17.930;2024-01-25T06:21:10;1.00;99.90
44695;DHT22;32845;59.422;17.930;2024-01-25T06:25:41;0.90;99.90
44695;DHT22;32845;59.422;17.930;2024-01-25T06:30:12;0.90;99.90
44695;DHT22;32845;59.422;17.930;2024-01-25T06:34:42;0.90;99.90
44695;DHT22;32845;59.422;17.930;2024-01-25T06:39:13;0.90;99.90
44695;DHT22;32845;59.422;17.930;2024-01-25T06:43:49;0.90;99.90
44695;DHT22;32845;59.422;17.930;2024-01-25T06:48:19;0.90;99.90
44695;DHT22;32845;59.422;17.930;2024-01-25T06:53:00;0.90;99.90
44695;DHT22;32845;59.422;17.930;2024-01-25T06:57:30;0.90;99.90
44695;DHT22;32845;59.422;17.930;2024-01-25T07:02:01;0.90;99.90
44695;DHT22;32845;59.422;17.930;2024-01-25T07:06:33;0.90;99.90
44695;DHT22;32845;59.422;17.930;2024-01-25T07:11:03;0.90;99.90
44695;DHT22;32845;59.422;17.930;2024-01-25T07:15:34;0.90;99.90
44695;DHT22;32845;59.422;17.930;2024-01-25T07:20:05;0.90;99.90
44695;DHT22;32845;59.422;17.930;2024-01-25T07:24:36;0.90;99.90
44695;DHT22;32845;59.422;17.930;2024-01-25T07:29:07;0.90;99.90
44695;DHT22;32845;59.422;17.930;2024-01-25T07:33:37;0.90;99.90
44695;DHT22;32845;59.422;17.930;2024-01-25T07:38:08;0.80;99.90
44695;DHT22;32845;59.422;17.930;2024-01-25T07:42:38;0.80;99.90
44695;DHT22;32845;59.422;17.930;2024-01-25T07:47:09;0.70;99.90
44695;DHT22;32845;59.422;17.930;2024-01-25T07:51:40;0.70;99.90
44695;DHT22;32845;59.422;17.930;2024-01-25T07:56:11;0.70;99.90
44695;DHT22;32845;59.422;17.930;2024-01-25T08:00:42;0.70;99.90
44695;DHT22;32845;59.422;17.930;2024-01-25T08:05:13;0.70;99.90
44695;DHT22;32845;59.422;17.930;2024-01-25T08:09:43;0.60;99.90
44695;DHT22;32845;59.422;17.930;2024-01-25T08:14:19;0.70;99.90
44695;DHT22;32845;59.422;17.930;2024-01-25T08:18:49;0.70;99.90
44695;DHT22;32845;59.422;17.930;2024-01-25T08:23:20;0.70;99.90
44695;DHT22;32845;59.422;17.930;2024-01-25T08:27:50;0.70;99.90
44695;DHT22;32845;59.422;17.930;2024-01-25T08:32:21;0.70;99.90
44695;DHT22;32845;59.422;17.930;2024-01-25T08:36:52;0.70;99.90
44695;DHT22;32845;59.422;17.930;2024-01-25T08:41:22;0.70;99.90
44695;DHT22;32845;59.422;17.930;2024-01-25T08:45:54;0.70;99.90
44695;DHT22;32845;59.422;17.930;2024-01-25T08:50:25;0.70;99.90
44695;DHT22;32845;59.422;17.930;2024-01-25T08:54:55;0.60;99.90
44695;DHT22;32845;59.422;17.930;2024-01-25T08:59:26;0.60;99.90
44695;DHT22;32845;59.422;17.930;2024-01-25T09:03:57;0.60;99.90
44695;DHT22;32845;59.422;17.930;2024-01-25T09:08:32;0.60;99.90
44695;DHT22;32845;59.422;17.930;2024-01-25T09:13:03;0.60;99.90
44695;DHT22;32845;59.422;17.930;2024-01-25T09:17:34;0.60;99.90
44695;DHT22;32845;59.422;17.930;2024-01-25T09:22:04;0.60;99.90
44695;DHT22;32845;59.422;17.930;2024-01-25T09:26:35;0.60;99.90
44695;DHT22;32845;59.422;17.930;2024-01-25T09:31:05;0.50;99.90
44695;DHT22;32845;59.422;17.930;2024-01-25T09:35:36;0.60;99.90
44695;DHT22;32845;59.422;17.930;2024-01-25T09:40:07;0.50;99.90
44695;DHT22;32845;59.422;17.930;2024-01-25T09:44:40;0.50;99.90
44695;DHT22;32845;59.422;17.930;2024-01-25T09:49:11;0.50;99.90
44695;DHT22;32845;59.422;17.930;2024-01-25T09:53:42;0.50;99.90
44695;DHT22;32845;59.422;17.930;2024-01-25T09:58:13;0.50;99.90
44695;DHT22;32845;59.422;17.930;2024-01-25T10:02:44;0.50;99.90
44695;DHT22;32845;59.422;17.930;2024-01-25T10:07:15;0.50;99.90
44695;DHT22;32845;59.422;17.930;2024-01-25T10:11:45;0.50;99.90
44695;DHT22;32845;59.422;17.930;2024-01-25T10:16:17;0.50;99.90
44695;DHT22;32845;59.422;17.930;2024-01-25T10:20:49;0.50;99.90
44695;DHT22;32845;59.422;17.930;2024-01-25T10:25:19;0.50;99.90
44695;DHT22;32845;59.422;17.930;2024-01-25T10:29:50;0.50;99.90
44695;DHT22;32845;59.422;17.930;2024-01-25T10:34:22;0.50;99.90
44695;DHT22;32845;59.422;17.930;2024-01-25T10:38:56;0.50;99.90
44695;DHT22;32845;59.422;17.930;2024-01-25T10:43:31;0.50;99.90
44695;DHT22;32845;59.422;17.930;2024-01-25T10:48:02;0.50;99.90
44695;DHT22;32845;59.422;17.930;2024-01-25T10:52:33;0.40;99.90
44695;DHT22;32845;59.422;17.930;2024-01-25T10:57:05;0.50;99.90
44695;DHT22;32845;59.422;17.930;2024-01-25T11:01:35;0.50;99.90
44695;DHT22;32845;59.422;17.930;2024-01-25T11:06:10;0.50;99.90
44695;DHT22;32845;59.422;17.930;2024-01-25T11:10:42;0.40;99.90
44695;DHT22;32845;59.422;17.930;2024-01-25T11:15:38;0.40;99.90
44695;DHT22;32845;59.422;17.930;2024-01-25T11:20:13;0.40;99.90
44695;DHT22;32845;59.422;17.930;2024-01-25T11:24:44;0.50;99.90
44695;DHT22;32845;59.422;17.930;2024-01-25T11:29:16;0.50;99.90
44695;DHT22;32845;59.422;17.930;2024-01-25T11:33:47;0.50;99.90
44695;DHT22;32845;59.422;17.930;2024-01-25T11:38:18;0.50;99.90
44695;DHT22;32845;59.422;17.930;2024-01-25T11:42:49;0.50;99.90
44695;DHT22;32845;59.422;17.930;2024-01-25T11:47:21;0.50;99.90
44695;DHT22;32845;59.422;17.930;2024-01-25T11:51:51;0.40;99.90
44695;DHT22;32845;59.422;17.930;2024-01-25T11:56:26;0.30;99.90
44695;DHT22;32845;59.422;17.930;2024-01-25T12:00:58;0.30;99.90
44695;DHT22;32845;59.422;17.930;2024-01-25T12:05:30;0.30;99.90
44695;DHT22;32845;59.422;17.930;2024-01-25T12:10:05;0.30;99.90
44695;DHT22;32845;59.422;17.930;2024-01-25T12:14:36;0.30;99.90
44695;DHT22;32845;59.422;17.930;2024-01-25T12:19:07;0.30;99.90
44695;DHT22;32845;59.422;17.930;2024-01-25T12:23:39;0.30;99.90
44695;DHT22;32845;59.422;17.930;2024-01-25T12:28:10;0.30;99.90
44695;DHT22;32845;59.422;17.930;2024-01-25T12:32:41;0.30;99.90
44695;DHT22;32845;59.422;17.930;2024-01-25T12:37:11;0.30;99.90
44695;DHT22;32845;59.422;17.930;2024-01-25T12:41:42;0.30;99.90
44695;DHT22;32845;59.422;17.930;2024-01-25T12:46:12;0.30;99.90
44695;DHT22;32845;59.422;17.930;2024-01-25T12:50:43;0.30;99.90
44695;DHT22;32845;59.422;17.930;2024-01-25T12:55:14;0.30;99.90
44695;DHT22;32845;59.422;17.930;2024-01-25T12:59:44;0.30;99.90
44695;DHT22;32845;59.422;17.930;2024-01-25T13:04:17;0.30;99.90
44695;DHT22;32845;59.422;17.930;2024-01-25T13:08:48;0.30;99.90
44695;DHT22;32845;59.422;17.930;2024-01-25T13:13:19;0.30;99.90
44695;DHT22;32845;59.422;17.930;2024-01-25T13:17:51;0.30;99.90
44695;DHT22;32845;59.422;17.930;2024-01-25T13:22:21;0.30;99.90
44695;DHT22;32845;59.422;17.930;2024-01-25T13:26:52;0.20;99.90
44695;DHT22;32845;59.422;17.930;2024-01-25T13:31:23;0.20;99.90
44695;DHT22;32845;59.422;17.930;2024-01-25T13:35:53;0.20;99.90
44695;DHT22;32845;59.422;17.930;2024-01-25T13:40:24;0.10;99.90
44695;DHT22;32845;59.422;17.930;2024-01-25T13:44:55;0.10;99.90
44695;DHT22;32845;59.422;17.930;2024-01-25T13:49:25;0.00;99.90
44695;DHT22;32845;59.422;17.930;2024-01-25T13:53:56;0.00;99.90
44695;DHT22;32845;59.422;17.930;2024-01-25T13:58:26;0.00;99.90
44695;DHT22;32845;59.422;17.930;2024-01-25T14:02:57;0.00;99.90
44695;DHT22;32845;59.422;17.930;2024-01-25T14:07:27;0.00;99.90
44695;DHT22;32845;59.422;17.930;2024-01-25T14:11:58;0.00;99.90
44695;DHT22;32845;59.422;17.930;2024-01-25T14:16:29;0.00;99.90
44695;DHT22;32845;59.422;17.930;2024-01-25T14:20:59;0.00;99.90
44695;DHT22;32845;59.422;17.930;2024-01-25T14:25:30;0.00;99.90
44695;DHT22;32845;59.422;17.930;2024-01-25T14:30:01;0.00;99.90
44695;DHT22;32845;59.422;17.930;2024-01-25T14:34:31;0.00;99.90
44695;DHT22;32845;59.422;17.930;2024-01-25T14:39:02;0.00;99.90
44695;DHT22;32845;59.422;17.930;2024-01-25T14:43:33;0.00;99.90
44695;DHT22;32845;59.422;17.930;2024-01-25T14:48:04;0.00;99.90
44695;DHT22;32845;59.422;17.930;2024-01-25T14:52:36;0.00;99.90
44695;DHT22;32845;59.422;17.930;2024-01-25T14:57:07;0.00;99.90
44695;DHT22;32845;59.422;17.930;2024-01-25T15:01:37;0.00;99.90
44695;DHT22;32845;59.422;17.930;2024-01-25T15:06:08;-0.10;99.90
44695;DHT22;32845;59.422;17.930;2024-01-25T15:10:38;-0.10;99.90
44695;DHT22;32845;59.422;17.930;2024-01-25T15:15:09;-0.10;99.90
44695;DHT22;32845;59.422;17.930;2024-01-25T15:19:40;-0.10;99.90
44695;DHT22;32845;59.422;17.930;2024-01-25T15:24:11;-0.10;99.90
44695;DHT22;32845;59.422;17.930;2024-01-25T15:28:41;-0.10;99.90
44695;DHT22;32845;59.422;17.930;2024-01-25T15:33:12;-0.10;99.90
44695;DHT22;32845;59.422;17.930;2024-01-25T15:37:42;-0.10;99.90
44695;DHT22;32845;59.422;17.930;2024-01-25T15:42:13;-0.10;99.90
44695;DHT22;32845;59.422;17.930;2024-01-25T15:46:44;-0.10;99.90
44695;DHT22;32845;59.422;17.930;2024-01-25T15:51:14;-0.10;99.90
44695;DHT22;32845;59.422;17.930;2024-01-25T15:55:45;-0.10;99.90
44695;DHT22;32845;59.422;17.930;2024-01-25T16:00:16;-0.10;99.90
44695;DHT22;32845;59.422;17.930;2024-01-25T16:04:47;-0.10;99.90
44695;DHT22;32845;59.422;17.930;2024-01-25T16:09:17;-0.20;99.90
44695;DHT22;32845;59.422;17.930;2024-01-25T16:13:48;-0.20;99.90
44695;DHT22;32845;59.422;17.930;2024-01-25T16:18:19;-0.20;99.90
44695;DHT22;32845;59.422;17.930;2024-01-25T16:22:50;-0.20;99.90
44695;DHT22;32845;59.422;17.930;2024-01-25T16:27:21;-0.20;99.90
44695;DHT22;32845;59.422;17.930;2024-01-25T16:31:51;-0.30;99.90
44695;DHT22;32845;59.422;17.930;2024-01-25T16:36:22;-0.30;99.90
44695;DHT22;32845;59.422;17.930;2024-01-25T16:40:52;-0.30;99.90
44695;DHT22;32845;59.422;17.930;2024-01-25T16:45:23;-0.40;99.90
44695;DHT22;32845;59.422;17.930;2024-01-25T16:49:55;-0.40;99.90
44695;DHT22;32845;59.422;17.930;2024-01-25T16:54:26;-0.40;99.90
44695;DHT22;32845;59.422;17.930;2024-01-25T16:58:56;-0.40;99.90
44695;DHT22;32845;59.422;17.930;2024-01-25T17:03:27;-0.40;99.90
44695;DHT22;32845;59.422;17.930;2024-01-25T17:07:58;-0.40;99.90
44695;DHT22;32845;59.422;17.930;2024-01-25T17:12:28;-0.40;99.90
44695;DHT22;32845;59.422;17.930;2024-01-25T17:16:59;-0.40;99.90
44695;DHT22;32845;59.422;17.930;2024-01-25T17:21:29;-0.40;99.90
44695;DHT22;32845;59.422;17.930;2024-01-25T17:26:00;-0.40;99.90
44695;DHT22;32845;59.422;17.930;2024-01-25T17:30:31;-0.40;99.90
44695;DHT22;32845;59.422;17.930;2024-01-25T17:35:12;-0.40;99.90
44695;DHT22;32845;59.422;17.930;2024-01-25T17:39:42;-0.40;99.90
44695;DHT22;32845;59.422;17.930;2024-01-25T17:44:13;-0.40;99.90
44695;DHT22;32845;59.422;17.930;2024-01-25T17:48:44;-0.40;99.90
44695;DHT22;32845;59.422;17.930;2024-01-25T17:53:15;-0.40;99.90
44695;DHT22;32845;59.422;17.930;2024-01-25T17:57:46;-0.40;99.90
44695;DHT22;32845;59.422;17.930;2024-01-25T18:02:16;-0.40;99.90
44695;DHT22;32845;59.422;17.930;2024-01-25T18:06:47;-0.40;99.90
44695;DHT22;32845;59.422;17.930;2024-01-25T18:11:17;-0.40;99.90
44695;DHT22;32845;59.422;17.930;2024-01-25T18:15:48;-0.40;99.90
44695;DHT22;32845;59.422;17.930;2024-01-25T18:20:19;-0.40;99.90
44695;DHT22;32845;59.422;17.930;2024-01-25T18:24:49;-0.40;99.90
44695;DHT22;32845;59.422;17.930;2024-01-25T18:29:20;-0.50;99.90
44695;DHT22;32845;59.422;17.930;2024-01-25T18:33:51;-0.50;99.90
44695;DHT22;32845;59.422;17.930;2024-01-25T18:38:22;-0.60;99.90
44695;DHT22;32845;59.422;17.930;2024-01-25T18:42:52;-0.60;99.90
44695;DHT22;32845;59.422;17.930;2024-01-25T18:47:23;-0.60;99.90
44695;DHT22;32845;59.422;17.930;2024-01-25T18:51:54;-0.60;99.90
44695;DHT22;32845;59.422;17.930;2024-01-25T18:56:24;-0.60;99.90
44695;DHT22;32845;59.422;17.930;2024-01-25T19:00:55;-0.60;99.90
44695;DHT22;32845;59.422;17.930;2024-01-25T19:05:26;-0.70;99.90
44695;DHT22;32845;59.422;17.930;2024-01-25T19:09:57;-0.70;99.90
44695;DHT22;32845;59.422;17.930;2024-01-25T19:14:33;-0.70;99.90
44695;DHT22;32845;59.422;17.930;2024-01-25T19:19:03;-0.70;99.90
44695;DHT22;32845;59.422;17.930;2024-01-25T19:23:38;-0.60;99.90
44695;DHT22;32845;59.422;17.930;2024-01-25T19:28:08;-0.60;99.90
44695;DHT22;32845;59.422;17.930;2024-01-25T19:32:39;-0.60;99.90
44695;DHT22;32845;59.422;17.930;2024-01-25T19:37:09;-0.60;99.90
44695;DHT22;32845;59.422;17.930;2024-01-25T19:41:40;-0.60;99.90
44695;DHT22;32845;59.422;17.930;2024-01-25T19:46:11;-0.60;99.90
44695;DHT22;32845;59.422;17.930;2024-01-25T19:50:41;-0.70;99.90
44695;DHT22;32845;59.422;17.930;2024-01-25T19:55:17;-0.70;99.90
44695;DHT22;32845;59.422;17.930;2024-01-25T19:59:48;-0.80;99.90
44695;DHT22;32845;59.422;17.930;2024-01-25T20:04:19;-0.90;99.90
44695;DHT22;32845;59.422;17.930;2024-01-25T20:08:50;-0.90;99.90
44695;DHT22;32845;59.422;17.930;2024-01-25T20:13:20;-1.00;99.90
44695;DHT22;32845;59.422;17.930;2024-01-25T20:17:51;-1.00;99.90
44695;DHT22;32845;59.422;17.930;2024-01-25T20:22:22;-1.00;99.90
44695;DHT22;32845;59.422;17.930;2024-01-25T20:26:52;-1.00;99.90
44695;DHT22;32845;59.422;17.930;2024-01-25T20:31:23;-0.90;99.90
44695;DHT22;32845;59.422;17.930;2024-01-25T20:35:53;-0.90;99.90
44695;DHT22;32845;59.422;17.930;2024-01-25T20:40:25;-0.90;99.90
44695;DHT22;32845;59.422;17.930;2024-01-25T20:44:56;-0.90;99.90
44695;DHT22;32845;59.422;17.930;2024-01-25T20:49:27;-0.90;99.90
44695;DHT22;32845;59.422;17.930;2024-01-25T20:53:57;-0.90;99.90
44695;DHT22;32845;59.422;17.930;2024-01-25T20:58:28;-1.00;99.90
44695;DHT22;32845;59.422;17.930;2024-01-25T21:02:59;-0.90;99.90
44695;DHT22;32845;59.422;17.930;2024-01-25T21:07:30;-0.90;99.90
44695;DHT22;32845;59.422;17.930;2024-01-25T21:12:01;-0.90;99.90
44695;DHT22;32845;59.422;17.930;2024-01-25T21:16:47;-1.00;99.90
44695;DHT22;32845;59.422;17.930;2024-01-25T21:21:17;-1.00;99.90
44695;DHT22;32845;59.422;17.930;2024-01-25T21:25:53;-1.00;99.90
44695;DHT22;32845;59.422;17.930;2024-01-25T21:30:24;-1.10;99.90
44695;DHT22;32845;59.422;17.930;2024-01-25T21:34:54;-1.00;99.90
44695;DHT22;32845;59.422;17.930;2024-01-25T21:39:25;-1.10;99.90
44695;DHT22;32845;59.422;17.930;2024-01-25T21:43:56;-1.10;99.90
44695;DHT22;32845;59.422;17.930;2024-01-25T21:48:26;-1.10;99.90
44695;DHT22;32845;59.422;17.930;2024-01-25T21:53:02;-1.10;99.90
44695;DHT22;32845;59.422;17.930;2024-01-25T21:57:32;-1.20;99.90
44695;DHT22;32845;59.422;17.930;2024-01-25T22:02:03;-1.20;99.90
44695;DHT22;32845;59.422;17.930;2024-01-25T22:06:34;-1.20;99.90
44695;DHT22;32845;59.422;17.930;2024-01-25T22:11:04;-1.20;99.90
44695;DHT22;32845;59.422;17.930;2024-01-25T22:15:40;-1.20;99.90
44695;DHT22;32845;59.422;17.930;2024-01-25T22:20:11;-1.20;99.90
44695;DHT22;32845;59.422;17.930;2024-01-25T22:24:41;-1.20;99.90
44695;DHT22;32845;59.422;17.930;2024-01-25T22:29:12;-1.20;99.90
44695;DHT22;32845;59.422;17.930;2024-01-25T22:33:43;-1.20;99.90
44695;DHT22;32845;59.422;17.930;2024-01-25T22:38:13;-1.20;99.90
44695;DHT22;32845;59.422;17.930;2024-01-25T22:42:44;-1.20;99.90
44695;DHT22;32845;59.422;17.930;2024-01-25T22:47:14;-1.20;99.90
44695;DHT22;32845;59.422;17.930;2024-01-25T22:51:45;-1.20;99.90
44695;DHT22;32845;59.422;17.930;2024-01-25T22:56:16;-1.20;99.90
44695;DHT22;32845;59.422;17.930;2024-01-25T23:00:46;-1.20;99.90
44695;DHT22;32845;59.422;17.930;2024-01-25T23:05:17;-1.20;99.90
44695;DHT22;32845;59.422;17.930;2024-01-25T23:09:49;-1.30;99.90
44695;DHT22;32845;59.422;17.930;2024-01-25T23:14:20;-1.30;99.90
44695;DHT22;32845;59.422;17.930;2024-01-25T23:18:51;-1.30;99.90
44695;DHT22;32845;59.422;17.930;2024-01-25T23:23:21;-1.30;99.90
44695;DHT22;32845;59.422;17.930;2024-01-25T23:27:52;-1.30;99.90
44695;DHT22;32845;59.422;17.930;2024-01-25T23:32:23;-1.30;99.90
44695;DHT22;32845;59.422;17.930;2024-01-25T23:36:53;-1.30;99.90
44695;DHT22;32845;59.422;17.930;2024-01-25T23:41:24;-1.30;99.90
44695;DHT22;32845;59.422;17.930;2024-01-25T23:45:55;-1.30;99.90
44695;DHT22;32845;59.422;17.930;2024-01-25T23:50:26;-1.40;99.90
44695;DHT22;32845;59.422;17.930;2024-01-25T23:54:57;-1.40;99.90
44695;DHT22;32845;59.422;17.930;2024-01-25T23:59:27;-1.40;99.90
